Hartland, MN (56042)

6:25 PM CST on March 03, 2015 (GMT -0600)
KMNHARTL2 | Change Station
CLOSE
Current Station
Personal Weather Station
Location: Hartland, MN
Elevation: 1260 ft
Nearby Weather Stations

Elev 1260 ft 43.80 °N, 93.49 °W | Updated 4 minutes ago

Partly Cloudy
Partly Cloudy
13.3 °F
Feels Like -1 °F
N
13.0
Wind Variable Wind from WNW
Gusts 28.0 mph

Today
High -- | Low -- °F
--% Chance of Precip.
Yesterday
High -- | Low -- °F
Precip. -- in
6:47 AM 6:04 PM
Waxing Gibbous, 97% visible
Pressure 29.86 in
Visibility 10.0 miles
Clouds Scattered Clouds 1600 ft
Windchill -1 °F
Dew Point 10 °F
Humidity 85%
Rainfall 0.00 in
Snow Depth Not available.
UV 0 out of 12
Pollen .40 out of 12
Air Quality Not available.
Flu Activity Not available.
METAR KAEL 040011Z AUTO 31016G26KT 10SM SCT016 M09/M13 A2986 RMK AO2

More Conditions Fewer Conditions

Pressure 29.86 in
Visibility 10.0 miles
Clouds Scattered Clouds 1600 ft
Windchill -1 °F
Dew Point 10 °F
Humidity 85%
Rainfall 0.00 in
Snow Depth Not available.
UV 0 out of 12
Pollen .40 out of 12
Air Quality Not available.
Flu Activity Not available.
METAR KAEL 040011Z AUTO 31016G26KT 10SM SCT016 M09/M13 A2986 RMK AO2

More Conditions Fewer Conditions

10-Day Weather Forecast

Almanac

Astronomy

Mar. 03, 2015 Rise Set
Actual Time
Civil Twilight
Nautical Twilight
Astronomical Twilight
Moon
Length of Visible Light
Length of Day
Tomorrow will be .
, % of the Moon is Illuminated

Today's Extremes

State Highs State Lows

Community

WunderPhotos

Upload Photos

1,802,340 photos uploaded!

WunderBlogs® & News

Nearby

Air Quality

  Air Quality AQ Index Pollutant
Not available.

Snow Depth

Station Depth Elevation

Earthquake Activity

City Distance Mag. Time & Date
Minimum magnitude displayed is 2.5.

Coastal Water Temperatures

Place Temperature

Nearby Weather Stations